Flight Track Log - Related Links

Times and Time Zones

All times are in EDT time to prevent confusion due to time zone crossing. See the TAM3853 flight status page for this flight to view local times or setup timezone preferences in your user account.

Time Position Orientation Groundspeed Altitude Reporting Facility
EDT Latitude Longitude Course Direction KTS MPH feet Rate Location/Type
Wed 09:44:00 PM -17.7874 -45.9308 136° Southeast  Level Estimated
Wed 09:45:00 PM -17.8473 -45.8682 135° Southeast  Level Estimated
Wed 09:46:00 PM -17.9071 -45.8056 135° Southeast  Level Estimated
Wed 09:47:00 PM -17.9669 -45.7429 135° Southeast  Level Estimated
Wed 09:48:00 PM -18.0267 -45.6802 135° Southeast  Level Estimated
Wed 09:49:00 PM -18.0864 -45.6174 135° Southeast  Level Estimated
Wed 09:50:00 PM -18.1462 -45.5546 135° Southeast  Level Estimated
Wed 09:51:00 PM -18.2059 -45.4917 135° Southeast  Level Estimated
Wed 09:52:00 PM -18.2656 -45.4288 135° Southeast  Level Estimated
Wed 09:53:00 PM -18.3253 -45.3659 135° Southeast  Level Estimated
Wed 09:54:00 PM -18.3849 -45.3029 135° Southeast  Level Estimated
Wed 09:55:00 PM -18.4445 -45.2399 135° Southeast  Level Estimated
Wed 09:56:00 PM -18.5041 -45.1768 135° Southeast  Level Estimated
Wed 09:57:00 PM -18.5637 -45.1137 135° Southeast  Level Estimated
Wed 09:58:00 PM -18.6233 -45.0506 135° Southeast  Level Estimated
Wed 09:59:00 PM -18.6828 -44.9874 135° Southeast  Level Estimated
Wed 10:00:00 PM -18.7424 -44.9241 135° Southeast  Level Estimated
Wed 10:01:00 PM -18.8019 -44.8608 135° Southeast  Level Estimated
Wed 10:02:00 PM -18.8614 -44.7975 135° Southeast  Level Estimated
Wed 10:03:00 PM -18.9208 -44.7341 135° Southeast  Level Estimated
Wed 10:04:00 PM -18.9803 -44.6707 135° Southeast  Level Estimated
Wed 10:05:00 PM -19.0397 -44.6072 135° Southeast  Level Estimated
Wed 10:06:00 PM -19.0991 -44.5437 135° Southeast  Level Estimated
Wed 10:07:00 PM -19.1585 -44.4801 135° Southeast  Level Estimated
Wed 10:08:00 PM -19.2178 -44.4165 135° Southeast  Level Estimated
Wed 10:09:00 PM -19.2772 -44.3529 135° Southeast  Level Estimated
Wed 10:10:00 PM -19.3365 -44.2892 135° Southeast  Level Estimated
Wed 10:11:00 PM -19.3958 -44.2254 135° Southeast  Level Estimated
Wed 10:12:00 PM -19.4550 -44.1616 135° Southeast  Level Estimated
Wed 10:13:00 PM -19.5143 -44.0978 135° Southeast  Level Estimated
Wed 10:14:00 PM -19.5735 -44.0339 135° Southeast  Level Estimated
Wed 10:15:00 PM -19.6327 -43.9700 135° Southeast  Level Estimated
Wed 10:16:00 PM -19.6338 -43.9689 134° Southeast  Level Estimated
Wed 10:17:00 PM -19.6338 -43.9689 90° East  Level Estimated
Wed 10:18:00 PM -19.6338 -43.9689 90° East  Level Estimated
Wed 10:19:00 PM -19.6338 -43.9689 90° East  Level Estimated
Wed 10:20:00 PM -19.6338 -43.9689 90° East  Level Estimated
Wed 10:21:00 PM -19.6338 -43.9689 90° East  Level Estimated
Wed 10:22:00 PM -19.6338 -43.9689 90° East  Level Estimated
Wed 10:23:00 PM -19.6338 -43.9689 90° East  Level Estimated
Wed 10:24:00 PM -19.6338 -43.9689 90° East  Level Estimated
Wed 10:25:00 PM -19.6338 -43.9689 90° East  Level Estimated
Wed 10:26:00 PM -19.6338 -43.9689 90° East  Level Estimated
Wed 10:27:00 PM -19.6338 -43.9689 90° East  Level Estimated
Wed 10:28:00 PM -19.6338 -43.9689 90° East  Level Estimated
Wed 10:29:00 PM -19.6338 -43.9689 90° East  Level Estimated
Wed 10:30:00 PM -19.6338 -43.9689 90° East  Level Estimated
Wed 10:31:00 PM -19.6338 -43.9689 90° East  Level Estimated

Login

Don't have an account? Register now (free) for customized features, flight alerts, and more!